Time,TemperatureF,DewpointF,PressureIn,WindDirection,WindDirectionDegrees,WindSpeedMPH,WindSpeedGustMPH,Humidity,HourlyPrecipIn,Conditions,Clouds,dailyrainin,SolarRadiationWatts/m^2,SoftwareType,DateUTC
2013-10-10 00:00:00,47.0,34.0,-100.00,WNW,297,0.0,-999.0,61,0.00,,,-99.99,-3.400000,,2013-10-10 07:00:00,
2013-10-10 00:42:00,47.0,34.0,29.70,WNW,297,0.0,-999.0,61,0.00,,,-99.99,-3.400000,,2013-10-10 07:42:00,
2013-10-10 00:52:00,47.0,34.0,-100.00,WNW,297,0.0,-999.0,61,0.00,,,-99.99,-3.400000,,2013-10-10 07:52:00,
2013-10-10 01:00:00,45.0,34.0,29.72,WSW,258,0.0,-999.0,67,0.00,,,-99.99,-2.600000,,2013-10-10 08:00:00,
2013-10-10 01:43:00,45.0,34.0,29.72,WSW,258,0.0,-999.0,67,0.00,,,-99.99,-2.600000,,2013-10-10 08:43:00,
2013-10-10 01:52:00,45.0,34.0,29.72,WSW,258,0.0,-999.0,67,0.00,,,-99.99,-2.600000,,2013-10-10 08:52:00,
2013-10-10 02:00:00,44.0,34.0,29.73,NNE,16,2.0,-999.0,68,0.00,,,-99.99,-1.100000,,2013-10-10 09:00:00,
2013-10-10 02:43:00,44.0,34.0,-100.00,NNE,16,2.0,-999.0,68,0.00,,,-99.99,-1.100000,,2013-10-10 09:43:00,
2013-10-10 02:53:00,44.0,34.0,29.73,NNE,16,2.0,-999.0,68,0.00,,,-99.99,-1.100000,,2013-10-10 09:53:00,
2013-10-10 03:00:00,41.0,34.0,29.73,WNW,290,1.0,-999.0,74,0.00,,,-99.99,-2.200000,,2013-10-10 10:00:00,
2013-10-10 03:42:00,41.0,34.0,29.73,WNW,290,1.0,-999.0,74,0.00,,,-99.99,-2.200000,,2013-10-10 10:42:00,
2013-10-10 03:53:00,41.0,34.0,29.73,WNW,290,1.0,-999.0,74,0.00,,,-99.99,-2.200000,,2013-10-10 10:53:00,
2013-10-10 04:00:00,41.0,34.0,29.74,SE,144,2.0,-999.0,75,0.00,,,-99.99,-1.100000,,2013-10-10 11:00:00,
2013-10-10 04:42:00,41.0,34.0,29.74,SE,144,2.0,-999.0,75,0.00,,,-99.99,-1.100000,,2013-10-10 11:42:00,
2013-10-10 04:56:00,41.0,34.0,29.74,SE,144,2.0,-999.0,75,0.00,,,-99.99,-1.100000,,2013-10-10 11:56:00,
2013-10-10 05:00:00,40.0,34.0,29.77,SSW,204,1.0,-999.0,77,0.00,,,-99.99,-1.200000,,2013-10-10 12:00:00,
2013-10-10 05:42:00,40.0,34.0,29.77,SSW,204,1.0,-999.0,77,0.00,,,-99.99,-1.200000,,2013-10-10 12:42:00,
2013-10-10 05:52:00,40.0,34.0,29.77,SSW,204,1.0,-999.0,77,0.00,,,-99.99,-1.200000,,2013-10-10 12:52:00,
2013-10-10 06:00:00,40.0,34.0,29.79,NNE,31,0.0,-999.0,78,0.00,,,-99.99,-1.200000,,2013-10-10 13:00:00,
2013-10-10 06:42:00,40.0,34.0,29.79,NNE,31,0.0,-999.0,78,0.00,,,-99.99,-1.200000,,2013-10-10 13:42:00,
2013-10-10 06:52:00,40.0,34.0,29.79,NNE,31,0.0,-999.0,78,0.00,,,-99.99,-1.200000,,2013-10-10 13:52:00,
2013-10-10 07:00:00,41.0,35.0,29.78,SE,142,0.0,-999.0,76,0.00,,,-99.99,0.400000,,2013-10-10 14:00:00,
2013-10-10 07:42:00,41.0,35.0,29.78,SE,142,0.0,-999.0,76,0.00,,,-99.99,0.400000,,2013-10-10 14:42:00,
2013-10-10 07:52:00,41.0,35.0,29.78,SE,142,0.0,-999.0,76,0.00,,,-99.99,0.400000,,2013-10-10 14:52:00,
2013-10-10 08:00:00,44.0,36.0,29.80,North,0,0.0,-999.0,72,0.00,,,-99.99,13.400000,,2013-10-10 15:00:00,
2013-10-10 08:43:00,44.0,36.0,29.80,North,0,0.0,-999.0,72,0.00,,,-99.99,13.400000,,2013-10-10 15:43:00,
2013-10-10 08:54:00,44.0,36.0,29.80,North,0,0.0,-999.0,72,0.00,,,-99.99,13.400000,,2013-10-10 15:54:00,
2013-10-10 09:00:00,47.0,37.0,29.85,NW,308,0.0,-999.0,68,0.00,,,-99.99,56.900002,,2013-10-10 16:00:00,
2013-10-10 09:42:00,47.0,37.0,29.85,NW,308,0.0,-999.0,68,0.00,,,-99.99,56.900002,,2013-10-10 16:42:00,
2013-10-10 09:53:00,47.0,37.0,29.85,NW,308,0.0,-999.0,68,0.00,,,-99.99,56.900002,,2013-10-10 16:53:00,
2013-10-10 11:00:00,59.0,42.0,29.89,SSE,150,1.0,-999.0,51,0.00,,,-99.99,536.200012,,2013-10-10 18:00:00,
2013-10-10 11:42:00,59.0,42.0,29.89,SSE,150,1.0,-999.0,51,0.00,,,-99.99,536.200012,,2013-10-10 18:42:00,
2013-10-10 11:52:00,59.0,42.0,29.89,SSE,150,1.0,-999.0,51,0.00,,,-99.99,536.200012,,2013-10-10 18:52:00,
2013-10-10 12:00:00,61.0,41.0,29.89,WSW,241,1.0,-999.0,47,0.00,,,-99.99,645.599976,,2013-10-10 19:00:00,
2013-10-10 12:42:00,61.0,41.0,29.89,WSW,241,1.0,-999.0,47,0.00,,,-99.99,645.599976,,2013-10-10 19:42:00,
2013-10-10 12:53:00,61.0,41.0,29.89,WSW,241,1.0,-999.0,47,0.00,,,-99.99,645.599976,,2013-10-10 19:53:00,
2013-10-10 13:00:00,64.0,40.0,29.90,West,278,1.0,-999.0,41,0.00,,,-99.99,696.799988,,2013-10-10 20:00:00,
2013-10-10 13:42:00,64.0,40.0,29.90,West,278,1.0,-999.0,41,0.00,,,-99.99,696.799988,,2013-10-10 20:42:00,
2013-10-10 13:52:00,64.0,40.0,29.90,West,278,1.0,-999.0,41,0.00,,,-99.99,696.799988,,2013-10-10 20:52:00,
2013-10-10 14:00:00,66.0,40.0,29.89,West,274,2.0,-999.0,38,0.00,,,-99.99,684.900024,,2013-10-10 21:00:00,
2013-10-10 14:44:00,66.0,40.0,29.89,West,274,2.0,-999.0,38,0.00,,,-99.99,684.900024,,2013-10-10 21:44:00,
2013-10-10 14:54:00,66.0,40.0,29.89,West,274,2.0,-999.0,38,0.00,,,-99.99,684.900024,,2013-10-10 21:54:00,
2013-10-10 15:00:00,66.0,42.0,29.90,West,270,3.0,-999.0,41,0.00,,,-99.99,608.500000,,2013-10-10 22:00:00,
2013-10-10 15:43:00,66.0,42.0,29.90,West,270,3.0,-999.0,41,0.00,,,-99.99,608.500000,,2013-10-10 22:43:00,
2013-10-10 15:53:00,66.0,42.0,29.90,West,270,3.0,-999.0,41,0.00,,,-99.99,608.500000,,2013-10-10 22:53:00,
2013-10-10 16:00:00,66.0,41.0,29.90,WSW,243,1.0,-999.0,40,0.00,,,-99.99,384.399994,,2013-10-10 23:00:00,
2013-10-10 16:43:00,66.0,41.0,29.90,WSW,243,1.0,-999.0,40,0.00,,,-99.99,384.399994,,2013-10-10 23:43:00,
2013-10-10 16:52:00,66.0,41.0,29.90,WSW,243,1.0,-999.0,40,0.00,,,-99.99,384.399994,,2013-10-10 23:52:00,
2013-10-10 17:00:00,64.0,41.0,29.89,SW,236,3.0,-999.0,43,0.00,,,-99.99,58.200001,,2013-10-11 00:00:00,
2013-10-10 17:42:00,64.0,41.0,29.89,SW,236,3.0,-999.0,43,0.00,,,-99.99,58.200001,,2013-10-11 00:42:00,
2013-10-10 17:52:00,64.0,41.0,29.89,SW,236,3.0,-999.0,43,0.00,,,-99.99,58.200001,,2013-10-11 00:52:00,
2013-10-10 18:00:00,62.0,41.0,29.90,SSW,197,1.0,-999.0,46,0.00,,,-99.99,38.000000,,2013-10-11 01:00:00,
2013-10-10 18:42:00,62.0,41.0,29.90,SSW,197,1.0,-999.0,46,0.00,,,-99.99,38.000000,,2013-10-11 01:42:00,
2013-10-10 18:52:00,62.0,41.0,29.90,SSW,197,1.0,-999.0,46,0.00,,,-99.99,38.000000,,2013-10-11 01:52:00,
2013-10-10 19:00:00,55.0,41.0,29.91,SSW,206,0.0,-999.0,59,0.00,,,-99.99,5.300000,,2013-10-11 02:00:00,
2013-10-10 19:42:00,55.0,41.0,29.91,SSW,206,0.0,-999.0,59,0.00,,,-99.99,5.300000,,2013-10-11 02:42:00,
2013-10-10 19:52:00,55.0,41.0,29.91,SSW,206,0.0,-999.0,59,0.00,,,-99.99,5.300000,,2013-10-11 02:52:00,
2013-10-10 20:00:00,51.0,40.0,29.93,West,273,0.0,-999.0,66,0.00,,,-99.99,-2.200000,,2013-10-11 03:00:00,
2013-10-10 20:45:00,51.0,40.0,29.93,West,273,0.0,-999.0,66,0.00,,,-99.99,-2.200000,,2013-10-11 03:45:00,
2013-10-10 20:54:00,51.0,40.0,29.93,West,273,0.0,-999.0,66,0.00,,,-99.99,-2.200000,,2013-10-11 03:54:00,
2013-10-10 21:00:00,48.0,39.0,29.94,SW,225,0.0,-999.0,71,0.00,,,-99.99,-1.300000,,2013-10-11 04:00:00,
2013-10-10 21:44:00,48.0,39.0,29.94,SW,225,0.0,-999.0,71,0.00,,,-99.99,-1.300000,,2013-10-11 04:44:00,
2013-10-10 21:53:00,48.0,39.0,29.94,SW,225,0.0,-999.0,71,0.00,,,-99.99,-1.300000,,2013-10-11 04:53:00,
2013-10-10 22:00:00,46.0,39.0,29.96,WSW,250,0.0,-999.0,75,0.00,,,-99.99,-1.300000,,2013-10-11 05:00:00,
2013-10-10 22:43:00,46.0,39.0,29.96,WSW,250,0.0,-999.0,75,0.00,,,-99.99,-1.300000,,2013-10-11 05:43:00,
2013-10-10 22:52:00,46.0,39.0,29.96,WSW,250,0.0,-999.0,75,0.00,,,-99.99,-1.300000,,2013-10-11 05:52:00,
2013-10-10 23:00:00,48.0,41.0,29.96,NE,40,2.0,-999.0,75,0.00,,,-99.99,-0.800000,,2013-10-11 06:00:00,
2013-10-10 23:43:00,48.0,41.0,29.96,NE,40,2.0,-999.0,75,0.00,,,-99.99,-0.800000,,2013-10-11 06:43:00,
2013-10-10 23:52:00,48.0,41.0,29.96,NE,40,2.0,-999.0,75,0.00,,,-99.99,-0.800000,,2013-10-11 06:52:00,